Time;durP1;ratioP1;P1;durP2;ratioP2;P2;SDS_P1;SDS_P2;PMS_P1;PMS_P2;Temp;Humidity;BMP_temperature;BMP_pressure;BME280_temperature;BME280_humidity;BME280_pressure;Samples;Min_cycle;Max_cycle;Signal;HPM_P1;HPM_P2
2024/02/25 00:00:17;;;;;;;221.47;66.27;;;;;;;;;;4992613;28;20527;-48
2024/02/25 00:02:43;;;;;;;225.02;67.75;;;;;;;;;;4991133;28;20408;-47
2024/02/25 00:05:09;;;;;;;227.97;70.40;;;;;;;;;;4990476;28;20248;-46
2024/02/25 00:07:35;;;;;;;221.57;65.40;;;;;;;;;;4991454;28;20502;-46
2024/02/25 00:10:03;;;;;;;223.07;65.65;;;;;;;;;;4992117;28;20223;-45
2024/02/25 00:12:32;;;;;;;223.05;66.65;;;;;;;;;;4997014;28;20179;-45
2024/02/25 00:14:59;;;;;;;224.32;67.80;;;;;;;;;;4991335;28;20181;-45
2024/02/25 00:17:25;;;;;;;223.65;66.45;;;;;;;;;;4991820;28;20181;-46
2024/02/25 00:19:52;;;;;;;222.80;67.53;;;;;;;;;;4994105;28;20244;-46
2024/02/25 00:22:18;;;;;;;222.18;66.80;;;;;;;;;;4992031;28;20965;-45
2024/02/25 00:24:44;;;;;;;222.63;67.57;;;;;;;;;;4991703;28;20177;-46
2024/02/25 00:27:10;;;;;;;221.88;66.22;;;;;;;;;;4991460;28;20829;-45
2024/02/25 00:29:36;;;;;;;221.83;66.27;;;;;;;;;;4998939;28;20184;-46
2024/02/25 00:32:02;;;;;;;222.47;68.47;;;;;;;;;;4992561;28;20439;-46
2024/02/25 00:34:28;;;;;;;223.68;67.70;;;;;;;;;;4994346;28;20408;-46
2024/02/25 00:36:54;;;;;;;224.02;66.50;;;;;;;;;;4991337;28;20181;-46
2024/02/25 00:39:21;;;;;;;224.53;67.87;;;;;;;;;;4991860;28;20247;-46
2024/02/25 00:41:51;;;;;;;223.23;66.65;;;;;;;;;;4992653;28;20444;-45
2024/02/25 00:44:17;;;;;;;223.73;66.93;;;;;;;;;;4995792;28;20184;-46
2024/02/25 00:46:43;;;;;;;225.37;68.77;;;;;;;;;;4991795;28;20200;-46
2024/02/25 00:49:09;;;;;;;224.23;68.00;;;;;;;;;;4993787;28;20408;-46
2024/02/25 00:51:35;;;;;;;223.37;67.47;;;;;;;;;;4995339;28;20192;-46
2024/02/25 00:54:01;;;;;;;223.63;67.90;;;;;;;;;;4991557;28;21137;-46
2024/02/25 00:56:27;;;;;;;223.77;65.82;;;;;;;;;;4998121;28;20962;-46
2024/02/25 00:58:53;;;;;;;223.47;67.17;;;;;;;;;;4992630;28;20205;-46
2024/02/25 01:01:19;;;;;;;224.43;67.07;;;;;;;;;;4991308;28;20471;-46
2024/02/25 01:03:45;;;;;;;223.90;66.32;;;;;;;;;;4990797;28;20765;-45
2024/02/25 01:06:11;;;;;;;224.85;64.82;;;;;;;;;;4994933;28;20699;-46
2024/02/25 01:08:41;;;;;;;222.70;63.72;;;;;;;;;;4991325;28;20173;-46
2024/02/25 01:11:07;;;;;;;222.90;64.63;;;;;;;;;;4991290;28;20714;-46
2024/02/25 01:13:33;;;;;;;222.60;64.03;;;;;;;;;;4991364;28;20527;-45
2024/02/25 01:16:02;;;;;;;225.15;66.30;;;;;;;;;;4990821;28;20187;-46
2024/02/25 01:18:30;;;;;;;223.15;64.93;;;;;;;;;;4994913;28;20330;-45
2024/02/25 01:20:56;;;;;;;222.48;64.22;;;;;;;;;;4992002;28;20199;-45
2024/02/25 01:23:22;;;;;;;222.50;64.70;;;;;;;;;;4994608;28;20188;-45
2024/02/25 01:25:48;;;;;;;224.05;65.53;;;;;;;;;;4990857;28;20170;-45
2024/02/25 01:28:14;;;;;;;224.90;65.77;;;;;;;;;;4991685;28;20212;-46
2024/02/25 01:30:40;;;;;;;222.03;64.00;;;;;;;;;;4992983;28;20432;-46
2024/02/25 01:33:06;;;;;;;222.20;64.40;;;;;;;;;;4994983;28;20478;-46
2024/02/25 01:35:32;;;;;;;220.27;62.65;;;;;;;;;;4996230;28;20404;-46
2024/02/25 01:37:57;;;;;;;223.50;65.43;;;;;;;;;;4991015;28;20267;-46
2024/02/25 01:40:24;;;;;;;220.53;63.67;;;;;;;;;;4991034;28;20450;-46
2024/02/25 01:43:09;;;;;;;222.00;64.07;;;;;;;;;;4991709;28;20424;-46
2024/02/25 01:45:35;;;;;;;222.82;63.47;;;;;;;;;;4993281;28;20188;-46
2024/02/25 01:48:02;;;;;;;221.88;63.33;;;;;;;;;;4994790;28;20678;-46
2024/02/25 01:50:28;;;;;;;222.30;63.45;;;;;;;;;;4990813;28;20229;-45
2024/02/25 01:52:55;;;;;;;222.47;63.40;;;;;;;;;;4990757;28;20208;-46
2024/02/25 01:55:22;;;;;;;224.75;66.07;;;;;;;;;;4990594;28;20767;-46
2024/02/25 01:57:48;;;;;;;222.93;65.20;;;;;;;;;;4992734;28;20191;-46
2024/02/25 02:00:16;;;;;;;222.80;65.22;;;;;;;;;;4990770;28;20196;-46
2024/02/25 02:02:42;;;;;;;225.25;67.55;;;;;;;;;;4990082;28;20192;-46
2024/02/25 02:05:09;;;;;;;224.30;65.05;;;;;;;;;;4996317;28;20637;-47
2024/02/25 02:07:35;;;;;;;222.43;63.70;;;;;;;;;;4997011;28;20776;-47
2024/02/25 02:10:01;;;;;;;223.63;63.33;;;;;;;;;;4990844;28;20181;-46
2024/02/25 02:12:27;;;;;;;223.52;66.07;;;;;;;;;;4990748;28;20177;-46
2024/02/25 02:14:53;;;;;;;221.23;63.70;;;;;;;;;;4995277;28;20182;-47
2024/02/25 02:17:21;;;;;;;222.33;64.80;;;;;;;;;;4994418;28;20423;-49
2024/02/25 02:19:47;;;;;;;224.70;65.18;;;;;;;;;;4994587;28;20897;-47
2024/02/25 02:22:13;;;;;;;220.60;62.40;;;;;;;;;;4994672;28;20169;-47
2024/02/25 02:24:39;;;;;;;221.45;63.97;;;;;;;;;;4994862;28;20927;-47
2024/02/25 02:27:05;;;;;;;220.80;64.20;;;;;;;;;;4994501;28;20232;-46
2024/02/25 02:29:31;;;;;;;222.57;65.40;;;;;;;;;;4994573;28;20405;-46
2024/02/25 02:31:59;;;;;;;221.73;63.00;;;;;;;;;;4994272;28;20208;-47
2024/02/25 02:34:25;;;;;;;219.90;63.97;;;;;;;;;;5000381;28;20748;-46
2024/02/25 02:36:51;;;;;;;223.33;66.10;;;;;;;;;;4994806;28;20265;-47
2024/02/25 02:39:17;;;;;;;223.05;65.80;;;;;;;;;;4994209;28;20411;-47
2024/02/25 02:41:43;;;;;;;224.43;67.27;;;;;;;;;;4995903;28;20591;-47
2024/02/25 02:44:09;;;;;;;224.17;65.37;;;;;;;;;;4997646;28;20462;-47
2024/02/25 02:46:40;;;;;;;223.27;66.47;;;;;;;;;;4993837;28;20468;-47
2024/02/25 02:49:06;;;;;;;223.75;65.47;;;;;;;;;;4992989;28;20928;-47
2024/02/25 02:51:33;;;;;;;220.98;63.75;;;;;;;;;;4994239;28;20570;-46
2024/02/25 02:53:59;;;;;;;222.63;63.85;;;;;;;;;;4995826;28;20209;-47
2024/02/25 02:56:25;;;;;;;222.17;64.00;;;;;;;;;;4993942;28;20261;-47
2024/02/25 02:58:51;;;;;;;222.00;64.18;;;;;;;;;;4994404;28;20416;-47
2024/02/25 03:01:17;;;;;;;221.30;62.85;;;;;;;;;;4999423;28;20620;-47
2024/02/25 03:03:43;;;;;;;222.25;65.30;;;;;;;;;;4994280;28;20562;-47
2024/02/25 03:06:09;;;;;;;220.50;63.77;;;;;;;;;;4993806;28;20173;-47
2024/02/25 03:08:35;;;;;;;219.93;63.37;;;;;;;;;;4995541;28;20907;-47
2024/02/25 03:11:01;;;;;;;222.60;63.72;;;;;;;;;;4996943;28;20936;-47
2024/02/25 03:13:27;;;;;;;221.77;64.65;;;;;;;;;;4993470;28;20176;-48
2024/02/25 03:15:53;;;;;;;224.10;66.85;;;;;;;;;;4994963;28;20180;-47
2024/02/25 03:18:19;;;;;;;224.47;66.40;;;;;;;;;;4998526;28;20177;-47
2024/02/25 03:20:45;;;;;;;218.07;62.47;;;;;;;;;;4993352;28;21021;-47
2024/02/25 03:23:13;;;;;;;221.85;63.92;;;;;;;;;;4995231;28;20261;-47
2024/02/25 03:25:39;;;;;;;221.02;64.25;;;;;;;;;;4993272;28;20173;-47
2024/02/25 03:28:05;;;;;;;219.53;63.00;;;;;;;;;;4997825;28;20215;-46
2024/02/25 03:30:31;;;;;;;222.25;64.40;;;;;;;;;;4999971;28;20427;-47
2024/02/25 03:33:01;;;;;;;221.45;63.92;;;;;;;;;;4992495;28;20652;-47
2024/02/25 03:35:27;;;;;;;222.77;65.72;;;;;;;;;;4993994;28;20185;-47
2024/02/25 03:37:54;;;;;;;222.60;66.38;;;;;;;;;;4993624;28;20256;-47
2024/02/25 03:40:22;;;;;;;221.05;63.65;;;;;;;;;;4996317;28;20201;-47
2024/02/25 03:42:50;;;;;;;222.60;64.45;;;;;;;;;;4998048;28;20173;-47
2024/02/25 03:45:17;;;;;;;222.43;65.25;;;;;;;;;;4992750;28;20590;-47
2024/02/25 03:47:43;;;;;;;222.55;64.45;;;;;;;;;;4993086;28;20276;-48
2024/02/25 03:50:10;;;;;;;222.40;64.93;;;;;;;;;;4994606;28;20507;-47
2024/02/25 03:52:37;;;;;;;222.90;64.55;;;;;;;;;;4996005;28;20544;-46
2024/02/25 03:55:03;;;;;;;222.10;63.75;;;;;;;;;;4993484;28;20173;-47
2024/02/25 03:57:29;;;;;;;222.20;63.85;;;;;;;;;;4996436;28;20255;-47
2024/02/25 03:59:55;;;;;;;224.27;67.53;;;;;;;;;;4992815;28;20267;-47
2024/02/25 04:02:21;;;;;;;222.53;64.97;;;;;;;;;;4992804;28;20641;-47
2024/02/25 04:04:47;;;;;;;222.70;65.17;;;;;;;;;;4993937;28;20486;-47
2024/02/25 04:07:13;;;;;;;219.67;61.30;;;;;;;;;;4993078;28;20471;-46
2024/02/25 04:09:40;;;;;;;221.65;64.20;;;;;;;;;;4992059;28;20460;-46
2024/02/25 04:12:07;;;;;;;222.50;64.40;;;;;;;;;;4992317;28;20196;-46
2024/02/25 04:14:33;;;;;;;224.23;65.90;;;;;;;;;;4992034;28;20165;-46
2024/02/25 04:16:59;;;;;;;222.52;63.70;;;;;;;;;;4991891;28;20539;-46
2024/02/25 04:19:25;;;;;;;224.52;64.95;;;;;;;;;;4992004;28;20177;-46
2024/02/25 04:21:51;;;;;;;221.65;63.08;;;;;;;;;;4991970;28;20291;-46
2024/02/25 04:24:17;;;;;;;221.13;62.50;;;;;;;;;;4992429;28;20725;-46
2024/02/25 04:26:44;;;;;;;222.80;65.30;;;;;;;;;;4991925;28;20296;-46
2024/02/25 04:29:10;;;;;;;220.63;64.05;;;;;;;;;;4992031;28;20904;-46
2024/02/25 04:31:41;;;;;;;223.17;65.67;;;;;;;;;;4991766;28;20216;-46
2024/02/25 04:34:07;;;;;;;224.15;65.60;;;;;;;;;;4992275;28;20774;-46
2024/02/25 04:36:33;;;;;;;222.47;63.83;;;;;;;;;;4991499;28;20178;-46
2024/02/25 04:38:59;;;;;;;221.23;62.50;;;;;;;;;;4991977;28;20409;-46
2024/02/25 04:41:25;;;;;;;222.63;65.53;;;;;;;;;;4991594;28;20510;-46
2024/02/25 04:43:51;;;;;;;224.32;65.97;;;;;;;;;;4991730;28;20181;-45
2024/02/25 04:46:17;;;;;;;224.88;65.53;;;;;;;;;;4991524;28;20173;-46
2024/02/25 04:48:42;;;;;;;224.27;65.33;;;;;;;;;;4991545;28;20645;-46
2024/02/25 04:51:08;;;;;;;222.63;65.27;;;;;;;;;;4991553;28;20796;-46
2024/02/25 04:53:34;;;;;;;222.77;63.33;;;;;;;;;;4991671;28;20913;-46
2024/02/25 04:56:00;;;;;;;223.80;64.53;;;;;;;;;;4991326;28;20185;-46
2024/02/25 04:58:26;;;;;;;220.77;63.77;;;;;;;;;;4991496;28;20834;-46
2024/02/25 05:00:52;;;;;;;222.87;63.40;;;;;;;;;;4991379;28;20966;-45
2024/02/25 05:03:18;;;;;;;224.00;64.88;;;;;;;;;;4991376;28;20447;-46
2024/02/25 05:05:44;;;;;;;223.53;65.00;;;;;;;;;;4991133;28;20181;-46
2024/02/25 05:08:10;;;;;;;223.02;65.03;;;;;;;;;;4991651;28;20460;-46
2024/02/25 05:10:38;;;;;;;223.60;65.47;;;;;;;;;;4991522;28;20188;-46
2024/02/25 05:13:04;;;;;;;222.20;63.70;;;;;;;;;;4991625;28;20165;-45
2024/02/25 05:15:32;;;;;;;223.10;64.00;;;;;;;;;;4991234;28;20187;-45
2024/02/25 05:17:58;;;;;;;221.27;61.30;;;;;;;;;;4983521;28;20416;-45
2024/02/25 05:20:25;;;;;;;223.07;64.23;;;;;;;;;;4991389;28;20225;-46
2024/02/25 05:22:51;;;;;;;221.23;61.58;;;;;;;;;;4991334;28;20622;-46
2024/02/25 05:25:18;;;;;;;223.25;64.20;;;;;;;;;;4991126;28;20191;-46
2024/02/25 05:27:44;;;;;;;222.93;63.92;;;;;;;;;;4991302;28;20717;-46
2024/02/25 05:30:10;;;;;;;222.13;63.37;;;;;;;;;;4991220;28;20205;-46
2024/02/25 05:32:36;;;;;;;220.73;61.00;;;;;;;;;;4991330;28;20923;-46
2024/02/25 05:35:06;;;;;;;227.25;67.00;;;;;;;;;;4991122;28;20415;-46
2024/02/25 05:37:32;;;;;;;219.52;61.00;;;;;;;;;;4991095;28;20173;-46
2024/02/25 05:39:58;;;;;;;219.27;60.42;;;;;;;;;;4991063;28;20173;-46
2024/02/25 05:42:24;;;;;;;218.90;60.72;;;;;;;;;;4991246;28;20180;-46
2024/02/25 05:44:53;;;;;;;221.03;61.10;;;;;;;;;;4991002;28;20327;-46
2024/02/25 05:47:20;;;;;;;218.07;58.47;;;;;;;;;;4990823;28;20467;-46
2024/02/25 05:49:46;;;;;;;218.38;59.65;;;;;;;;;;4991307;28;20260;-45
2024/02/25 05:52:12;;;;;;;218.50;58.63;;;;;;;;;;4994956;28;20252;-46
2024/02/25 05:54:38;;;;;;;221.85;63.03;;;;;;;;;;4994905;28;20200;-46
2024/02/25 05:57:04;;;;;;;220.77;60.08;;;;;;;;;;4994536;28;20181;-46
2024/02/25 05:59:30;;;;;;;218.25;59.40;;;;;;;;;;4994623;28;20185;-46
2024/02/25 06:01:56;;;;;;;218.80;59.10;;;;;;;;;;4994558;28;20225;-46
2024/02/25 06:04:22;;;;;;;219.23;60.83;;;;;;;;;;4994817;28;20177;-46
2024/02/25 06:06:52;;;;;;;217.30;59.15;;;;;;;;;;4994098;28;20592;-46
2024/02/25 06:09:18;;;;;;;219.45;61.88;;;;;;;;;;4994517;28;20225;-46
2024/02/25 06:11:45;;;;;;;220.52;60.72;;;;;;;;;;4994364;28;20271;-46
2024/02/25 06:14:11;;;;;;;221.00;61.33;;;;;;;;;;4994527;28;20169;-46
2024/02/25 06:16:37;;;;;;;222.20;63.33;;;;;;;;;;4994417;28;20553;-46
2024/02/25 06:19:03;;;;;;;220.52;61.33;;;;;;;;;;4994455;28;20412;-46
2024/02/25 06:21:29;;;;;;;220.43;61.73;;;;;;;;;;4994241;28;20205;-46
2024/02/25 06:23:55;;;;;;;219.88;61.20;;;;;;;;;;4994181;28;20451;-46
2024/02/25 06:26:21;;;;;;;218.97;59.17;;;;;;;;;;4993809;28;20177;-46
2024/02/25 06:28:47;;;;;;;218.27;59.50;;;;;;;;;;4993976;28;20413;-46
2024/02/25 06:31:13;;;;;;;217.63;59.23;;;;;;;;;;4994275;28;20438;-46
2024/02/25 06:33:39;;;;;;;217.23;57.77;;;;;;;;;;4994269;28;20853;-46
2024/02/25 06:36:06;;;;;;;219.00;59.30;;;;;;;;;;4993922;28;20443;-46
2024/02/25 06:38:32;;;;;;;220.15;59.97;;;;;;;;;;4994123;28;20423;-46
2024/02/25 06:40:58;;;;;;;220.75;61.70;;;;;;;;;;4993653;28;20217;-46
2024/02/25 06:43:25;;;;;;;219.25;60.80;;;;;;;;;;4993891;28;20538;-46
2024/02/25 06:45:52;;;;;;;220.20;60.72;;;;;;;;;;4993589;28;20181;-46
2024/02/25 06:48:18;;;;;;;219.80;60.47;;;;;;;;;;4993660;28;20205;-46
2024/02/25 06:50:44;;;;;;;219.95;59.58;;;;;;;;;;4993570;28;20220;-46
2024/02/25 06:53:10;;;;;;;218.07;59.65;;;;;;;;;;4993789;28;20588;-46
2024/02/25 06:55:35;;;;;;;220.20;60.70;;;;;;;;;;4993205;28;20177;-46
2024/02/25 06:58:01;;;;;;;217.87;58.97;;;;;;;;;;4993700;28;20181;-46
2024/02/25 07:00:27;;;;;;;219.60;60.53;;;;;;;;;;4993651;28;20482;-46
2024/02/25 07:02:54;;;;;;;219.17;60.13;;;;;;;;;;4992417;28;20416;-46
2024/02/25 07:05:21;;;;;;;221.35;61.05;;;;;;;;;;4993112;28;20442;-46
2024/02/25 07:07:49;;;;;;;220.30;61.28;;;;;;;;;;4993311;28;20197;-46
2024/02/25 07:10:15;;;;;;;222.85;61.28;;;;;;;;;;4993277;28;20201;-46
2024/02/25 07:12:41;;;;;;;222.85;61.28;;;;;;;;;;4993306;28;20185;-46
2024/02/25 07:15:08;;;;;;;224.87;65.57;;;;;;;;;;4992989;28;20180;-46
2024/02/25 07:17:34;;;;;;;221.63;61.47;;;;;;;;;;4993183;28;20420;-46
2024/02/25 07:20:00;;;;;;;225.30;66.10;;;;;;;;;;4991519;28;20605;-46
2024/02/25 07:22:25;;;;;;;222.27;65.20;;;;;;;;;;4993012;28;20776;-46
2024/02/25 07:24:51;;;;;;;223.77;66.50;;;;;;;;;;4992836;28;20539;-45
2024/02/25 07:27:17;;;;;;;225.27;67.57;;;;;;;;;;4995191;28;20468;-46
2024/02/25 07:29:43;;;;;;;221.37;63.17;;;;;;;;;;4993462;28;20408;-46
2024/02/25 07:32:09;;;;;;;223.87;64.90;;;;;;;;;;5005128;28;20440;-46
2024/02/25 07:34:35;;;;;;;225.67;66.37;;;;;;;;;;5000205;28;20961;-46
2024/02/25 07:37:01;;;;;;;223.27;64.20;;;;;;;;;;4993506;28;21029;-46
2024/02/25 07:39:27;;;;;;;225.32;65.28;;;;;;;;;;4994429;28;20873;-46
2024/02/25 07:41:53;;;;;;;226.70;66.28;;;;;;;;;;4993109;28;20295;-46
2024/02/25 07:44:19;;;;;;;222.50;62.00;;;;;;;;;;4996962;28;20169;-46
2024/02/25 07:46:45;;;;;;;225.77;64.93;;;;;;;;;;4997870;28;20503;-46
2024/02/25 07:49:11;;;;;;;226.15;66.05;;;;;;;;;;4992697;28;20407;-46
2024/02/25 07:51:37;;;;;;;222.00;63.27;;;;;;;;;;4992259;28;20208;-46
2024/02/25 07:54:03;;;;;;;225.57;65.07;;;;;;;;;;4994857;28;20499;-46
2024/02/25 07:56:29;;;;;;;225.50;66.22;;;;;;;;;;4995910;28;20189;-46
2024/02/25 07:58:55;;;;;;;223.07;64.40;;;;;;;;;;4991995;28;20181;-46
2024/02/25 08:01:21;;;;;;;227.43;66.37;;;;;;;;;;4997178;28;20838;-46
2024/02/25 08:03:47;;;;;;;226.55;67.68;;;;;;;;;;4992294;28;20437;-46
2024/02/25 08:06:13;;;;;;;224.07;64.30;;;;;;;;;;4992944;28;20633;-45
2024/02/25 08:08:39;;;;;;;226.40;67.15;;;;;;;;;;4994359;28;20412;-46
2024/02/25 08:11:05;;;;;;;222.57;62.35;;;;;;;;;;4996232;28;20220;-47
2024/02/25 08:13:31;;;;;;;224.90;64.88;;;;;;;;;;4991895;28;20592;-46
2024/02/25 08:15:57;;;;;;;225.10;65.45;;;;;;;;;;4991775;28;20245;-46
2024/02/25 08:18:23;;;;;;;226.68;65.25;;;;;;;;;;4992050;28;20228;-46
2024/02/25 08:20:49;;;;;;;226.48;66.55;;;;;;;;;;4992501;28;20202;-46
2024/02/25 08:23:15;;;;;;;226.30;66.28;;;;;;;;;;4991873;28;20203;-46
2024/02/25 08:25:41;;;;;;;227.90;67.10;;;;;;;;;;4991601;28;20608;-45
2024/02/25 08:28:07;;;;;;;227.57;67.60;;;;;;;;;;4991969;28;20233;-46
2024/02/25 08:30:34;;;;;;;229.63;67.70;;;;;;;;;;4992250;28;20437;-46
2024/02/25 08:33:00;;;;;;;229.02;67.53;;;;;;;;;;4992625;28;20442;-46
2024/02/25 08:35:26;;;;;;;229.65;68.28;;;;;;;;;;4993040;28;20174;-46
2024/02/25 08:37:52;;;;;;;228.27;68.03;;;;;;;;;;4992285;28;20257;-46
2024/02/25 08:40:21;;;;;;;229.50;67.70;;;;;;;;;;5005705;23;20260;-44
2024/02/25 08:42:47;;;;;;;229.60;68.32;;;;;;;;;;4991528;28;20670;-44
2024/02/25 08:45:13;;;;;;;230.68;68.70;;;;;;;;;;4991504;28;20179;-43
2024/02/25 08:47:39;;;;;;;236.20;71.10;;;;;;;;;;4990988;28;20680;-44
2024/02/25 08:50:05;;;;;;;229.87;69.20;;;;;;;;;;4991533;28;20193;-44
2024/02/25 08:52:31;;;;;;;231.13;68.25;;;;;;;;;;4991824;28;20418;-44
2024/02/25 08:54:57;;;;;;;231.98;68.88;;;;;;;;;;4991626;28;20204;-44
2024/02/25 08:57:24;;;;;;;230.97;67.87;;;;;;;;;;4991460;28;20187;-44
2024/02/25 08:59:50;;;;;;;229.35;66.85;;;;;;;;;;4991394;28;20430;-44
2024/02/25 09:02:16;;;;;;;230.00;67.23;;;;;;;;;;4991658;28;20184;-44
2024/02/25 09:04:42;;;;;;;228.40;65.13;;;;;;;;;;4991133;28;20945;-44
2024/02/25 09:07:08;;;;;;;228.43;64.97;;;;;;;;;;4991030;28;20962;-45
2024/02/25 09:09:34;;;;;;;230.17;67.87;;;;;;;;;;4991157;28;20923;-45
2024/02/25 09:12:00;;;;;;;227.03;64.63;;;;;;;;;;4991708;28;20822;-44
2024/02/25 09:14:27;;;;;;;226.60;63.75;;;;;;;;;;4991871;28;20835;-44
2024/02/25 09:16:53;;;;;;;228.52;65.95;;;;;;;;;;4991017;28;20655;-44
2024/02/25 09:19:19;;;;;;;229.93;68.50;;;;;;;;;;4991313;28;20214;-44
2024/02/25 09:21:47;;;;;;;233.03;69.37;;;;;;;;;;4991286;28;20565;-44
2024/02/25 09:24:14;;;;;;;228.88;66.40;;;;;;;;;;4988218;28;20525;-44
2024/02/25 09:26:43;;;;;;;232.55;68.15;;;;;;;;;;4994055;28;20284;-44
2024/02/25 09:29:09;;;;;;;233.30;70.45;;;;;;;;;;4995002;28;20185;-44
2024/02/25 09:31:35;;;;;;;236.75;72.13;;;;;;;;;;4994911;28;20179;-45
2024/02/25 09:34:02;;;;;;;232.50;69.07;;;;;;;;;;4995684;28;20197;-45
2024/02/25 09:36:29;;;;;;;232.45;67.53;;;;;;;;;;4994885;28;20450;-45
2024/02/25 09:38:55;;;;;;;232.13;69.05;;;;;;;;;;4994619;28;20644;-44
2024/02/25 09:41:27;;;;;;;230.73;68.75;;;;;;;;;;4994791;28;20196;-45
2024/02/25 09:43:54;;;;;;;235.05;72.43;;;;;;;;;;4994197;28;20175;-45
2024/02/25 09:46:20;;;;;;;232.05;67.70;;;;;;;;;;4994591;28;20173;-44
2024/02/25 09:48:52;;;;;;;232.07;66.95;;;;;;;;;;4995133;28;20190;-44
2024/02/25 09:51:21;;;;;;;232.85;69.45;;;;;;;;;;4995026;28;20542;-44
2024/02/25 09:53:49;;;;;;;231.90;69.65;;;;;;;;;;4994533;28;20172;-45
2024/02/25 09:56:15;;;;;;;233.60;72.63;;;;;;;;;;4994693;28;20548;-44
2024/02/25 09:58:41;;;;;;;233.88;71.70;;;;;;;;;;4994508;28;20255;-45
2024/02/25 10:01:07;;;;;;;233.30;68.80;;;;;;;;;;4994610;28;20198;-45
2024/02/25 10:03:33;;;;;;;231.73;68.27;;;;;;;;;;4994540;28;20412;-45
2024/02/25 10:05:59;;;;;;;234.40;71.40;;;;;;;;;;4994251;28;20423;-44
2024/02/25 10:08:25;;;;;;;234.97;71.87;;;;;;;;;;4994450;28;20463;-44
2024/02/25 10:10:52;;;;;;;230.95;68.35;;;;;;;;;;4994170;28;20909;-45
2024/02/25 10:13:18;;;;;;;235.15;69.65;;;;;;;;;;4994435;28;20342;-44
2024/02/25 10:15:44;;;;;;;232.47;68.77;;;;;;;;;;4994070;28;20263;-44
2024/02/25 10:18:11;;;;;;;233.00;70.30;;;;;;;;;;4994612;28;20416;-45
2024/02/25 10:20:37;;;;;;;233.43;70.82;;;;;;;;;;4994231;28;20436;-45
2024/02/25 10:23:10;;;;;;;233.27;70.00;;;;;;;;;;4994395;28;20599;-44
2024/02/25 10:25:37;;;;;;;235.10;72.75;;;;;;;;;;4993750;28;20173;-45
2024/02/25 10:28:11;;;;;;;238.60;74.13;;;;;;;;;;4994073;28;20193;-44
2024/02/25 10:30:37;;;;;;;239.63;77.13;;;;;;;;;;4991598;28;20276;-45
2024/02/25 10:33:15;;;;;;;237.97;75.00;;;;;;;;;;4992788;28;20699;-44
2024/02/25 10:35:41;;;;;;;244.85;79.22;;;;;;;;;;4992425;28;20843;-45
2024/02/25 10:38:10;;;;;;;242.43;79.40;;;;;;;;;;4994534;28;20194;-45
2024/02/25 10:40:36;;;;;;;243.27;80.43;;;;;;;;;;4993668;28;20662;-45
2024/02/25 10:43:03;;;;;;;241.18;76.82;;;;;;;;;;4994027;28;20268;-45
2024/02/25 10:45:31;;;;;;;243.75;78.13;;;;;;;;;;4993599;28;20177;-45
2024/02/25 10:47:57;;;;;;;243.68;78.32;;;;;;;;;;4993730;28;20202;-45
2024/02/25 10:50:23;;;;;;;246.52;81.32;;;;;;;;;;4993667;28;20200;-45
2024/02/25 10:52:51;;;;;;;248.23;82.22;;;;;;;;;;4993520;28;20553;-45
2024/02/25 10:55:17;;;;;;;247.98;82.03;;;;;;;;;;4993528;28;20165;-45
2024/02/25 10:57:43;;;;;;;243.30;79.75;;;;;;;;;;4993535;28;20190;-44
2024/02/25 11:00:11;;;;;;;244.35;79.28;;;;;;;;;;4993762;28;20503;-45
2024/02/25 11:02:37;;;;;;;245.75;82.55;;;;;;;;;;4993334;28;20175;-45
2024/02/25 11:05:03;;;;;;;241.60;78.50;;;;;;;;;;4993261;28;20213;-45
2024/02/25 11:07:29;;;;;;;243.50;77.40;;;;;;;;;;4992968;28;20256;-45
2024/02/25 11:09:55;;;;;;;240.30;75.50;;;;;;;;;;4991125;28;20291;-44
2024/02/25 11:12:23;;;;;;;244.43;80.37;;;;;;;;;;4993139;28;20683;-44
2024/02/25 11:14:49;;;;;;;244.02;78.45;;;;;;;;;;4993038;28;21019;-45
2024/02/25 11:17:16;;;;;;;238.43;74.60;;;;;;;;;;4992887;28;20791;-45
2024/02/25 11:19:42;;;;;;;243.27;77.63;;;;;;;;;;4997634;28;20204;-45
2024/02/25 11:22:08;;;;;;;241.27;77.30;;;;;;;;;;4992958;28;20184;-45
2024/02/25 11:24:49;;;;;;;237.65;76.00;;;;;;;;;;4993067;28;20423;-44
2024/02/25 11:27:19;;;;;;;237.48;72.70;;;;;;;;;;4992589;28;20266;-44
2024/02/25 11:29:45;;;;;;;238.15;74.28;;;;;;;;;;4992708;28;20568;-45
2024/02/25 11:32:11;;;;;;;239.25;76.13;;;;;;;;;;4992787;28;20247;-45
2024/02/25 11:34:37;;;;;;;240.48;76.93;;;;;;;;;;4992596;28;20207;-45
2024/02/25 11:37:04;;;;;;;238.97;77.67;;;;;;;;;;4992631;28;20616;-44
2024/02/25 11:39:31;;;;;;;240.10;75.38;;;;;;;;;;4992583;28;20554;-45
2024/02/25 11:41:58;;;;;;;236.07;74.07;;;;;;;;;;4993220;28;20219;-44
2024/02/25 11:44:25;;;;;;;240.30;76.20;;;;;;;;;;4992646;28;20177;-44
2024/02/25 11:46:55;;;;;;;237.40;74.00;;;;;;;;;;4991739;28;20201;-46
2024/02/25 11:49:21;;;;;;;239.38;76.55;;;;;;;;;;4985873;28;20604;-44
2024/02/25 11:51:47;;;;;;;236.83;75.40;;;;;;;;;;4992207;28;20231;-44
2024/02/25 11:54:13;;;;;;;239.70;76.38;;;;;;;;;;4991541;28;20404;-45
2024/02/25 11:56:39;;;;;;;241.40;77.20;;;;;;;;;;4991952;28;20183;-44
2024/02/25 11:59:06;;;;;;;237.32;73.03;;;;;;;;;;4992297;28;20173;-44
2024/02/25 12:01:33;;;;;;;239.60;76.55;;;;;;;;;;4991085;28;20264;-45
2024/02/25 12:03:59;;;;;;;237.63;74.15;;;;;;;;;;4991756;28;20186;-45
2024/02/25 12:06:25;;;;;;;240.27;75.90;;;;;;;;;;4991926;28;20187;-45
2024/02/25 12:08:51;;;;;;;237.97;73.67;;;;;;;;;;4991935;28;20188;-45
2024/02/25 12:11:17;;;;;;;242.43;77.33;;;;;;;;;;4992560;28;20907;-45
2024/02/25 12:13:45;;;;;;;246.27;79.25;;;;;;;;;;4991911;28;20888;-45
2024/02/25 12:16:11;;;;;;;248.23;82.43;;;;;;;;;;4991647;28;20682;-45
2024/02/25 12:18:37;;;;;;;243.65;77.88;;;;;;;;;;4991938;28;20208;-45
2024/02/25 12:21:03;;;;;;;242.88;77.30;;;;;;;;;;4992016;28;20675;-45
2024/02/25 12:23:32;;;;;;;242.02;75.90;;;;;;;;;;4992051;28;20268;-45
2024/02/25 12:26:03;;;;;;;242.77;77.90;;;;;;;;;;4991640;28;20206;-45
2024/02/25 12:28:29;;;;;;;241.10;76.80;;;;;;;;;;4990377;28;20242;-45
2024/02/25 12:30:55;;;;;;;246.10;80.00;;;;;;;;;;4991420;28;20691;-45
2024/02/25 12:33:21;;;;;;;244.32;79.10;;;;;;;;;;4991823;28;20440;-46
2024/02/25 12:35:47;;;;;;;242.00;77.13;;;;;;;;;;4991284;28;20177;-44
2024/02/25 12:38:14;;;;;;;242.00;78.50;;;;;;;;;;4991600;28;20207;-45
2024/02/25 12:40:46;;;;;;;244.02;77.32;;;;;;;;;;4990657;28;20814;-45
2024/02/25 12:43:16;;;;;;;240.02;74.55;;;;;;;;;;4991619;28;20180;-45
2024/02/25 12:45:43;;;;;;;239.48;74.65;;;;;;;;;;4991532;28;20209;-44
2024/02/25 12:48:09;;;;;;;241.00;76.10;;;;;;;;;;4991493;28;20197;-45
2024/02/25 12:50:35;;;;;;;239.83;72.90;;;;;;;;;;4991637;28;20734;-45
2024/02/25 12:53:02;;;;;;;238.05;74.95;;;;;;;;;;4991370;28;20778;-44
2024/02/25 12:55:28;;;;;;;240.02;76.25;;;;;;;;;;4991458;28;20645;-44
2024/02/25 12:57:54;;;;;;;236.77;74.28;;;;;;;;;;4991646;28;20712;-45
2024/02/25 13:00:20;;;;;;;240.02;76.18;;;;;;;;;;4991246;28;20739;-45
2024/02/25 13:02:46;;;;;;;239.23;74.47;;;;;;;;;;4991280;28;20184;-45
2024/02/25 13:05:12;;;;;;;243.07;76.87;;;;;;;;;;4991136;28;20494;-45
2024/02/25 13:07:38;;;;;;;238.55;75.35;;;;;;;;;;4991201;28;20530;-45
2024/02/25 13:10:05;;;;;;;239.13;74.80;;;;;;;;;;4991423;28;20683;-45
2024/02/25 13:12:31;;;;;;;236.40;72.85;;;;;;;;;;4987463;28;20481;-44
2024/02/25 13:15:00;;;;;;;237.70;72.95;;;;;;;;;;4990987;28;20192;-44
2024/02/25 13:17:26;;;;;;;236.20;71.90;;;;;;;;;;4987026;28;20177;-44
2024/02/25 13:19:53;;;;;;;236.00;72.40;;;;;;;;;;4990910;28;20583;-44
2024/02/25 13:22:19;;;;;;;238.93;75.63;;;;;;;;;;4990783;28;20423;-44
2024/02/25 13:24:45;;;;;;;241.57;74.83;;;;;;;;;;4989283;28;20181;-45
2024/02/25 13:27:11;;;;;;;242.90;77.40;;;;;;;;;;4989295;28;20605;-44
2024/02/25 13:29:37;;;;;;;243.10;78.32;;;;;;;;;;4990434;28;20219;-44
2024/02/25 13:32:04;;;;;;;246.70;80.00;;;;;;;;;;4990019;28;20177;-45
2024/02/25 13:34:30;;;;;;;245.70;76.93;;;;;;;;;;4990477;28;20333;-45
2024/02/25 13:36:56;;;;;;;246.33;78.97;;;;;;;;;;4991076;28;20532;-45
2024/02/25 13:39:22;;;;;;;243.23;75.43;;;;;;;;;;4990940;28;20457;-44
2024/02/25 13:41:48;;;;;;;245.27;76.73;;;;;;;;;;4991090;28;20503;-44
2024/02/25 13:44:14;;;;;;;243.80;76.97;;;;;;;;;;4991198;28;20427;-45
2024/02/25 13:46:42;;;;;;;245.37;79.17;;;;;;;;;;4989298;28;20175;-45
2024/02/25 13:49:14;;;;;;;243.65;77.25;;;;;;;;;;4991022;28;20446;-45
2024/02/25 13:51:41;;;;;;;244.30;78.90;;;;;;;;;;4990873;28;20329;-44
2024/02/25 13:54:08;;;;;;;245.95;81.05;;;;;;;;;;4990880;28;20176;-45
2024/02/25 13:56:34;;;;;;;243.60;78.18;;;;;;;;;;4990632;28;20176;-46
2024/02/25 13:59:00;;;;;;;245.63;81.00;;;;;;;;;;4990980;28;20186;-44